sensor_id;sensor_type;location;lat;lon;timestamp;pressure;altitude;pressure_sealevel;temperature;humidity
39223;BME280;24936;46.328;11.026;2024-01-07T00:01:08;92829.81;;;1.68;100.00
39223;BME280;24936;46.328;11.026;2024-01-07T00:03:35;92829.31;;;1.74;100.00
39223;BME280;24936;46.328;11.026;2024-01-07T00:06:01;92829.19;;;1.76;100.00
39223;BME280;24936;46.328;11.026;2024-01-07T00:08:27;92829.81;;;1.68;100.00
39223;BME280;24936;46.328;11.026;2024-01-07T00:10:53;92832.78;;;1.42;100.00
39223;BME280;24936;46.328;11.026;2024-01-07T00:13:20;92826.13;;;1.49;100.00
39223;BME280;24936;46.328;11.026;2024-01-07T00:15:49;92825.81;;;1.43;100.00
39223;BME280;24936;46.328;11.026;2024-01-07T00:18:15;92824.56;;;1.58;100.00
39223;BME280;24936;46.328;11.026;2024-01-07T00:20:41;92835.31;;;1.53;100.00
39223;BME280;24936;46.328;11.026;2024-01-07T00:23:07;92833.38;;;1.67;100.00
39223;BME280;24936;46.328;11.026;2024-01-07T00:25:33;92836.66;;;1.69;100.00
39223;BME280;24936;46.328;11.026;2024-01-07T00:27:58;92832.66;;;1.65;100.00
39223;BME280;24936;46.328;11.026;2024-01-07T00:30:24;92834.84;;;1.60;100.00
39223;BME280;24936;46.328;11.026;2024-01-07T00:32:50;92839.31;;;1.58;100.00
39223;BME280;24936;46.328;11.026;2024-01-07T00:35:16;92826.47;;;1.56;100.00
39223;BME280;24936;46.328;11.026;2024-01-07T00:37:42;92832.47;;;1.57;100.00
39223;BME280;24936;46.328;11.026;2024-01-07T00:40:08;92832.41;;;1.47;100.00
39223;BME280;24936;46.328;11.026;2024-01-07T00:42:34;92827.06;;;1.60;100.00
39223;BME280;24936;46.328;11.026;2024-01-07T00:45:00;92830.13;;;1.53;100.00
39223;BME280;24936;46.328;11.026;2024-01-07T00:47:26;92829.44;;;1.51;100.00
39223;BME280;24936;46.328;11.026;2024-01-07T00:49:52;92834.13;;;1.58;100.00
39223;BME280;24936;46.328;11.026;2024-01-07T00:52:18;92825.75;;;1.54;100.00
39223;BME280;24936;46.328;11.026;2024-01-07T00:54:43;92836.50;;;1.49;100.00
39223;BME280;24936;46.328;11.026;2024-01-07T00:57:10;92829.44;;;1.51;100.00
39223;BME280;24936;46.328;11.026;2024-01-07T00:59:38;92837.44;;;1.48;100.00
39223;BME280;24936;46.328;11.026;2024-01-07T01:02:03;92839.38;;;1.67;100.00
39223;BME280;24936;46.328;11.026;2024-01-07T01:04:29;92837.28;;;1.82;100.00
39223;BME280;24936;46.328;11.026;2024-01-07T01:06:55;92838.94;;;1.83;100.00
39223;BME280;24936;46.328;11.026;2024-01-07T01:09:21;92839.44;;;1.77;100.00
39223;BME280;24936;46.328;11.026;2024-01-07T01:11:47;92841.31;;;1.75;100.00
39223;BME280;24936;46.328;11.026;2024-01-07T01:14:12;92840.19;;;1.68;100.00
39223;BME280;24936;46.328;11.026;2024-01-07T01:16:38;92842.78;;;1.68;100.00
39223;BME280;24936;46.328;11.026;2024-01-07T01:19:04;92844.56;;;1.67;100.00
39223;BME280;24936;46.328;11.026;2024-01-07T01:21:30;92841.47;;;1.74;100.00
39223;BME280;24936;46.328;11.026;2024-01-07T01:23:55;92848.16;;;1.76;100.00
39223;BME280;24936;46.328;11.026;2024-01-07T01:26:21;92837.47;;;1.91;100.00
39223;BME280;24936;46.328;11.026;2024-01-07T01:28:47;92842.25;;;1.86;100.00
39223;BME280;24936;46.328;11.026;2024-01-07T01:31:13;92840.75;;;1.93;100.00
39223;BME280;24936;46.328;11.026;2024-01-07T01:33:40;92844.50;;;1.79;100.00
39223;BME280;24936;46.328;11.026;2024-01-07T01:36:06;92842.28;;;1.74;100.00
39223;BME280;24936;46.328;11.026;2024-01-07T01:38:32;92850.00;;;1.64;100.00
39223;BME280;24936;46.328;11.026;2024-01-07T01:40:57;92836.97;;;1.97;100.00
39223;BME280;24936;46.328;11.026;2024-01-07T01:43:27;92827.13;;;2.22;100.00
39223;BME280;24936;46.328;11.026;2024-01-07T01:45:53;92827.22;;;2.41;100.00
39223;BME280;24936;46.328;11.026;2024-01-07T01:48:19;92830.31;;;2.04;100.00
39223;BME280;24936;46.328;11.026;2024-01-07T01:50:46;92843.91;;;1.96;100.00
39223;BME280;24936;46.328;11.026;2024-01-07T01:53:13;92835.00;;;1.89;100.00
39223;BME280;24936;46.328;11.026;2024-01-07T01:55:39;92834.50;;;1.74;100.00
39223;BME280;24936;46.328;11.026;2024-01-07T01:58:05;92828.00;;;1.80;100.00
39223;BME280;24936;46.328;11.026;2024-01-07T02:00:34;92838.06;;;1.73;100.00
39223;BME280;24936;46.328;11.026;2024-01-07T02:02:59;92834.84;;;1.81;100.00
39223;BME280;24936;46.328;11.026;2024-01-07T02:05:26;92840.34;;;1.88;100.00
39223;BME280;24936;46.328;11.026;2024-01-07T02:07:53;92828.66;;;2.03;100.00
39223;BME280;24936;46.328;11.026;2024-01-07T02:10:19;92836.78;;;1.89;100.00
39223;BME280;24936;46.328;11.026;2024-01-07T02:12:45;92831.94;;;2.05;100.00
39223;BME280;24936;46.328;11.026;2024-01-07T02:15:10;92827.41;;;1.97;100.00
39223;BME280;24936;46.328;11.026;2024-01-07T02:17:36;92826.91;;;1.82;100.00
39223;BME280;24936;46.328;11.026;2024-01-07T02:20:02;92831.16;;;1.83;100.00
39223;BME280;24936;46.328;11.026;2024-01-07T02:22:28;92832.28;;;1.70;100.00
39223;BME280;24936;46.328;11.026;2024-01-07T02:24:53;92837.03;;;1.86;100.00
39223;BME280;24936;46.328;11.026;2024-01-07T02:27:19;92836.97;;;1.76;100.00
39223;BME280;24936;46.328;11.026;2024-01-07T02:29:45;92840.91;;;1.70;100.00
39223;BME280;24936;46.328;11.026;2024-01-07T02:32:10;92845.00;;;1.51;100.00
39223;BME280;24936;46.328;11.026;2024-01-07T02:34:36;92846.41;;;1.56;100.00
39223;BME280;24936;46.328;11.026;2024-01-07T02:37:02;92841.50;;;1.41;100.00
39223;BME280;24936;46.328;11.026;2024-01-07T02:39:27;92845.66;;;1.32;100.00
39223;BME280;24936;46.328;11.026;2024-01-07T02:41:53;92838.25;;;1.28;100.00
39223;BME280;24936;46.328;11.026;2024-01-07T02:44:18;92848.34;;;1.42;100.00
39223;BME280;24936;46.328;11.026;2024-01-07T02:46:44;92849.72;;;1.46;100.00
39223;BME280;24936;46.328;11.026;2024-01-07T02:49:12;92839.94;;;1.50;100.00
39223;BME280;24936;46.328;11.026;2024-01-07T02:51:38;92838.53;;;1.46;100.00
39223;BME280;24936;46.328;11.026;2024-01-07T02:54:04;92845.22;;;1.48;100.00
39223;BME280;24936;46.328;11.026;2024-01-07T02:56:30;92840.16;;;1.26;100.00
39223;BME280;24936;46.328;11.026;2024-01-07T02:58:56;92841.13;;;1.46;100.00
39223;BME280;24936;46.328;11.026;2024-01-07T03:01:22;92843.59;;;1.68;100.00
39223;BME280;24936;46.328;11.026;2024-01-07T03:03:51;92833.59;;;1.43;100.00
39223;BME280;24936;46.328;11.026;2024-01-07T03:06:17;92835.78;;;1.59;100.00
39223;BME280;24936;46.328;11.026;2024-01-07T03:08:42;92832.31;;;1.37;100.00
39223;BME280;24936;46.328;11.026;2024-01-07T03:11:08;92840.63;;;1.31;100.00
39223;BME280;24936;46.328;11.026;2024-01-07T03:13:34;92836.53;;;1.17;100.00
39223;BME280;24936;46.328;11.026;2024-01-07T03:16:00;92827.97;;;1.37;100.00
39223;BME280;24936;46.328;11.026;2024-01-07T03:18:27;92823.34;;;1.41;100.00
39223;BME280;24936;46.328;11.026;2024-01-07T03:20:52;92811.03;;;1.55;100.00
39223;BME280;24936;46.328;11.026;2024-01-07T03:23:18;92824.47;;;1.60;100.00
39223;BME280;24936;46.328;11.026;2024-01-07T03:25:44;92810.91;;;1.56;100.00
39223;BME280;24936;46.328;11.026;2024-01-07T03:28:09;92806.34;;;1.48;100.00
39223;BME280;24936;46.328;11.026;2024-01-07T03:30:35;92803.25;;;1.55;100.00
39223;BME280;24936;46.328;11.026;2024-01-07T03:33:00;92816.53;;;1.61;100.00
39223;BME280;24936;46.328;11.026;2024-01-07T03:35:27;92812.16;;;1.62;100.00
39223;BME280;24936;46.328;11.026;2024-01-07T03:37:52;92810.72;;;1.69;100.00
39223;BME280;24936;46.328;11.026;2024-01-07T03:40:18;92814.50;;;1.65;100.00
39223;BME280;24936;46.328;11.026;2024-01-07T03:42:44;92816.72;;;1.70;100.00
39223;BME280;24936;46.328;11.026;2024-01-07T03:45:09;92811.81;;;1.66;100.00
39223;BME280;24936;46.328;11.026;2024-01-07T03:47:35;92813.50;;;1.56;100.00
39223;BME280;24936;46.328;11.026;2024-01-07T03:50:00;92804.66;;;1.59;100.00
39223;BME280;24936;46.328;11.026;2024-01-07T03:52:26;92810.47;;;1.72;100.00
39223;BME280;24936;46.328;11.026;2024-01-07T03:54:51;92812.22;;;1.93;100.00
39223;BME280;24936;46.328;11.026;2024-01-07T03:57:16;92813.69;;;1.86;100.00
39223;BME280;24936;46.328;11.026;2024-01-07T03:59:42;92807.03;;;1.93;100.00
39223;BME280;24936;46.328;11.026;2024-01-07T04:02:07;92798.81;;;1.88;100.00
39223;BME280;24936;46.328;11.026;2024-01-07T04:04:33;92807.91;;;1.61;100.00
39223;BME280;24936;46.328;11.026;2024-01-07T04:06:58;92799.09;;;1.63;100.00
39223;BME280;24936;46.328;11.026;2024-01-07T04:09:24;92795.53;;;1.86;100.00
39223;BME280;24936;46.328;11.026;2024-01-07T04:11:49;92792.31;;;1.93;100.00
39223;BME280;24936;46.328;11.026;2024-01-07T04:14:15;92788.63;;;1.75;100.00
39223;BME280;24936;46.328;11.026;2024-01-07T04:16:41;92794.38;;;1.78;100.00
39223;BME280;24936;46.328;11.026;2024-01-07T04:19:07;92789.66;;;1.83;100.00
39223;BME280;24936;46.328;11.026;2024-01-07T04:21:32;92787.34;;;1.90;100.00
39223;BME280;24936;46.328;11.026;2024-01-07T04:23:58;92788.69;;;1.85;100.00
39223;BME280;24936;46.328;11.026;2024-01-07T04:26:23;92793.69;;;1.76;100.00
39223;BME280;24936;46.328;11.026;2024-01-07T04:28:49;92797.50;;;1.72;100.00
39223;BME280;24936;46.328;11.026;2024-01-07T04:31:14;92796.97;;;1.78;100.00
39223;BME280;24936;46.328;11.026;2024-01-07T04:33:40;92792.31;;;1.72;100.00
39223;BME280;24936;46.328;11.026;2024-01-07T04:36:06;92793.25;;;1.71;100.00
39223;BME280;24936;46.328;11.026;2024-01-07T04:38:31;92793.56;;;1.78;100.00
39223;BME280;24936;46.328;11.026;2024-01-07T04:40:57;92797.94;;;1.77;100.00
39223;BME280;24936;46.328;11.026;2024-01-07T04:43:23;92798.06;;;1.76;100.00
39223;BME280;24936;46.328;11.026;2024-01-07T04:45:48;92798.44;;;1.71;100.00
39223;BME280;24936;46.328;11.026;2024-01-07T04:48:14;92795.97;;;1.70;100.00
39223;BME280;24936;46.328;11.026;2024-01-07T04:50:40;92792.63;;;1.79;100.00
39223;BME280;24936;46.328;11.026;2024-01-07T04:53:09;92793.09;;;1.94;100.00
39223;BME280;24936;46.328;11.026;2024-01-07T04:55:35;92803.94;;;1.99;100.00
39223;BME280;24936;46.328;11.026;2024-01-07T04:58:01;92813.00;;;1.83;100.00
39223;BME280;24936;46.328;11.026;2024-01-07T05:00:27;92815.66;;;1.72;100.00
39223;BME280;24936;46.328;11.026;2024-01-07T05:02:52;92813.63;;;1.97;100.00
39223;BME280;24936;46.328;11.026;2024-01-07T05:05:18;92826.75;;;2.05;100.00
39223;BME280;24936;46.328;11.026;2024-01-07T05:07:43;92830.31;;;2.04;100.00
39223;BME280;24936;46.328;11.026;2024-01-07T05:10:09;92833.28;;;1.99;100.00
39223;BME280;24936;46.328;11.026;2024-01-07T05:12:35;92837.91;;;1.96;100.00
39223;BME280;24936;46.328;11.026;2024-01-07T05:15:00;92847.47;;;1.95;100.00
39223;BME280;24936;46.328;11.026;2024-01-07T05:17:26;92844.00;;;1.85;100.00
39223;BME280;24936;46.328;11.026;2024-01-07T05:19:51;92853.03;;;1.70;100.00
39223;BME280;24936;46.328;11.026;2024-01-07T05:22:17;92856.50;;;1.26;100.00
39223;BME280;24936;46.328;11.026;2024-01-07T05:24:42;92858.03;;;0.96;100.00
39223;BME280;24936;46.328;11.026;2024-01-07T05:27:09;92856.72;;;1.02;100.00
39223;BME280;24936;46.328;11.026;2024-01-07T05:29:34;92863.50;;;1.14;100.00
39223;BME280;24936;46.328;11.026;2024-01-07T05:32:00;92856.00;;;1.00;100.00
39223;BME280;24936;46.328;11.026;2024-01-07T05:34:27;92856.28;;;0.85;100.00
39223;BME280;24936;46.328;11.026;2024-01-07T05:36:53;92861.47;;;0.85;100.00
39223;BME280;24936;46.328;11.026;2024-01-07T05:39:19;92866.59;;;1.08;100.00
39223;BME280;24936;46.328;11.026;2024-01-07T05:41:45;92873.22;;;1.01;100.00
39223;BME280;24936;46.328;11.026;2024-01-07T05:44:11;92871.63;;;1.21;100.00
39223;BME280;24936;46.328;11.026;2024-01-07T05:46:40;92872.81;;;1.17;100.00
39223;BME280;24936;46.328;11.026;2024-01-07T05:49:06;92876.09;;;1.51;100.00
39223;BME280;24936;46.328;11.026;2024-01-07T05:51:31;92871.81;;;1.62;100.00
39223;BME280;24936;46.328;11.026;2024-01-07T05:53:57;92876.19;;;1.61;100.00
39223;BME280;24936;46.328;11.026;2024-01-07T05:56:23;92877.50;;;1.56;100.00
39223;BME280;24936;46.328;11.026;2024-01-07T05:58:48;92878.84;;;1.50;100.00
39223;BME280;24936;46.328;11.026;2024-01-07T06:01:19;92876.56;;;1.57;100.00
39223;BME280;24936;46.328;11.026;2024-01-07T06:03:45;92885.34;;;1.44;100.00
39223;BME280;24936;46.328;11.026;2024-01-07T06:06:12;92876.63;;;1.34;100.00
39223;BME280;24936;46.328;11.026;2024-01-07T06:08:38;92881.28;;;1.19;100.00
39223;BME280;24936;46.328;11.026;2024-01-07T06:11:03;92877.38;;;1.25;100.00
39223;BME280;24936;46.328;11.026;2024-01-07T06:13:29;92877.03;;;1.18;100.00
39223;BME280;24936;46.328;11.026;2024-01-07T06:15:54;92876.69;;;1.22;100.00
39223;BME280;24936;46.328;11.026;2024-01-07T06:18:19;92877.03;;;1.18;100.00
39223;BME280;24936;46.328;11.026;2024-01-07T06:20:45;92881.06;;;1.22;100.00
39223;BME280;24936;46.328;11.026;2024-01-07T06:23:10;92879.97;;;1.25;100.00
39223;BME280;24936;46.328;11.026;2024-01-07T06:25:36;92888.13;;;1.20;100.00
39223;BME280;24936;46.328;11.026;2024-01-07T06:28:01;92880.91;;;1.24;100.00
39223;BME280;24936;46.328;11.026;2024-01-07T06:30:27;92891.66;;;1.19;100.00
39223;BME280;24936;46.328;11.026;2024-01-07T06:32:53;92890.53;;;1.33;100.00
39223;BME280;24936;46.328;11.026;2024-01-07T06:35:18;92887.75;;;1.25;100.00
39223;BME280;24936;46.328;11.026;2024-01-07T06:37:43;92898.09;;;1.36;100.00
39223;BME280;24936;46.328;11.026;2024-01-07T06:40:10;92901.88;;;1.32;100.00
39223;BME280;24936;46.328;11.026;2024-01-07T06:42:37;92903.94;;;1.49;100.00
39223;BME280;24936;46.328;11.026;2024-01-07T06:45:03;92910.56;;;1.42;100.00
39223;BME280;24936;46.328;11.026;2024-01-07T06:47:29;92905.25;;;1.44;100.00
39223;BME280;24936;46.328;11.026;2024-01-07T06:49:54;92918.53;;;1.50;100.00
39223;BME280;24936;46.328;11.026;2024-01-07T06:52:20;92908.84;;;1.64;100.00
39223;BME280;24936;46.328;11.026;2024-01-07T06:54:46;92911.09;;;1.57;100.00
39223;BME280;24936;46.328;11.026;2024-01-07T06:57:11;92923.03;;;1.48;100.00
39223;BME280;24936;46.328;11.026;2024-01-07T06:59:37;92918.81;;;1.36;100.00
39223;BME280;24936;46.328;11.026;2024-01-07T07:02:02;92921.03;;;1.41;100.00
39223;BME280;24936;46.328;11.026;2024-01-07T07:04:28;92927.31;;;1.38;100.00
39223;BME280;24936;46.328;11.026;2024-01-07T07:06:53;92920.38;;;1.39;100.00
39223;BME280;24936;46.328;11.026;2024-01-07T07:09:19;92919.91;;;1.33;100.00
39223;BME280;24936;46.328;11.026;2024-01-07T07:11:44;92928.25;;;1.37;100.00
39223;BME280;24936;46.328;11.026;2024-01-07T07:14:10;92924.56;;;1.51;100.00
39223;BME280;24936;46.328;11.026;2024-01-07T07:16:35;92927.03;;;1.52;100.00
39223;BME280;24936;46.328;11.026;2024-01-07T07:19:01;92935.28;;;1.46;100.00
39223;BME280;24936;46.328;11.026;2024-01-07T07:21:27;92933.91;;;1.42;100.00
39223;BME280;24936;46.328;11.026;2024-01-07T07:23:53;92940.00;;;1.52;100.00
39223;BME280;24936;46.328;11.026;2024-01-07T07:26:18;92940.00;;;1.52;100.00
39223;BME280;24936;46.328;11.026;2024-01-07T07:28:44;92951.56;;;1.48;100.00
39223;BME280;24936;46.328;11.026;2024-01-07T07:31:11;92944.47;;;1.50;100.00
39223;BME280;24936;46.328;11.026;2024-01-07T07:33:41;92950.22;;;1.65;100.00
39223;BME280;24936;46.328;11.026;2024-01-07T07:36:07;92962.69;;;1.72;100.00
39223;BME280;24936;46.328;11.026;2024-01-07T07:38:33;92959.91;;;1.63;100.00
39223;BME280;24936;46.328;11.026;2024-01-07T07:41:01;92962.13;;;1.68;100.00
39223;BME280;24936;46.328;11.026;2024-01-07T07:43:27;92958.34;;;1.61;100.00
39223;BME280;24936;46.328;11.026;2024-01-07T07:45:53;92964.13;;;1.64;100.00
39223;BME280;24936;46.328;11.026;2024-01-07T07:48:19;92957.63;;;1.70;100.00
39223;BME280;24936;46.328;11.026;2024-01-07T07:50:44;92956.69;;;1.71;100.00
39223;BME280;24936;46.328;11.026;2024-01-07T07:53:10;92968.25;;;1.67;100.00
39223;BME280;24936;46.328;11.026;2024-01-07T07:55:35;92977.91;;;1.65;100.00
39223;BME280;24936;46.328;11.026;2024-01-07T07:58:01;92977.88;;;1.76;100.00
39223;BME280;24936;46.328;11.026;2024-01-07T08:00:26;92972.13;;;1.73;100.00
39223;BME280;24936;46.328;11.026;2024-01-07T08:02:51;92979.34;;;1.69;100.00
39223;BME280;24936;46.328;11.026;2024-01-07T08:05:17;92978.38;;;1.70;100.00
39223;BME280;24936;46.328;11.026;2024-01-07T08:07:42;92971.56;;;1.69;100.00
39223;BME280;24936;46.328;11.026;2024-01-07T08:10:08;92975.84;;;1.59;100.00
39223;BME280;24936;46.328;11.026;2024-01-07T08:12:34;92981.22;;;1.67;100.00
39223;BME280;24936;46.328;11.026;2024-01-07T08:14:59;92982.28;;;1.64;100.00
39223;BME280;24936;46.328;11.026;2024-01-07T08:17:25;92974.47;;;1.76;100.00
39223;BME280;24936;46.328;11.026;2024-01-07T08:19:50;92989.34;;;1.74;100.00
39223;BME280;24936;46.328;11.026;2024-01-07T08:22:16;92980.28;;;1.68;100.00
39223;BME280;24936;46.328;11.026;2024-01-07T08:24:41;92976.03;;;1.67;100.00
39223;BME280;24936;46.328;11.026;2024-01-07T08:27:08;92989.25;;;1.64;100.00
39223;BME280;24936;46.328;11.026;2024-01-07T08:29:33;92993.97;;;1.59;100.00
39223;BME280;24936;46.328;11.026;2024-01-07T08:31:59;92993.94;;;1.70;100.00
39223;BME280;24936;46.328;11.026;2024-01-07T08:34:24;92999.84;;;1.61;100.00
39223;BME280;24936;46.328;11.026;2024-01-07T08:36:50;92992.97;;;1.82;100.00
39223;BME280;24936;46.328;11.026;2024-01-07T08:39:15;92992.84;;;1.84;100.00
39223;BME280;24936;46.328;11.026;2024-01-07T08:41:41;92994.84;;;1.80;100.00
39223;BME280;24936;46.328;11.026;2024-01-07T08:44:06;92996.03;;;1.88;100.00
39223;BME280;24936;46.328;11.026;2024-01-07T08:46:35;92996.03;;;1.88;100.00
39223;BME280;24936;46.328;11.026;2024-01-07T08:49:01;92992.22;;;1.92;100.00
39223;BME280;24936;46.328;11.026;2024-01-07T08:51:27;93000.56;;;1.95;100.00
39223;BME280;24936;46.328;11.026;2024-01-07T08:53:52;93007.09;;;1.90;100.00
39223;BME280;24936;46.328;11.026;2024-01-07T08:56:18;93009.09;;;1.86;100.00
39223;BME280;24936;46.328;11.026;2024-01-07T08:58:43;93005.91;;;1.94;100.00
39223;BME280;24936;46.328;11.026;2024-01-07T09:01:09;93016.13;;;2.07;100.00
39223;BME280;24936;46.328;11.026;2024-01-07T09:03:34;93016.03;;;1.97;100.00
39223;BME280;24936;46.328;11.026;2024-01-07T09:06:00;93018.28;;;2.23;100.00
39223;BME280;24936;46.328;11.026;2024-01-07T09:08:25;93017.66;;;2.09;100.00
39223;BME280;24936;46.328;11.026;2024-01-07T09:10:51;93022.47;;;2.14;100.00
39223;BME280;24936;46.328;11.026;2024-01-07T09:13:16;93023.03;;;2.18;100.00
39223;BME280;24936;46.328;11.026;2024-01-07T09:15:41;93023.41;;;2.13;100.00
39223;BME280;24936;46.328;11.026;2024-01-07T09:18:07;93027.50;;;1.94;100.00
39223;BME280;24936;46.328;11.026;2024-01-07T09:20:32;93030.91;;;1.95;100.00
39223;BME280;24936;46.328;11.026;2024-01-07T09:22:59;93028.31;;;1.95;100.00
39223;BME280;24936;46.328;11.026;2024-01-07T09:25:24;93031.03;;;1.93;100.00
39223;BME280;24936;46.328;11.026;2024-01-07T09:27:51;93029.13;;;1.95;100.00
39223;BME280;24936;46.328;11.026;2024-01-07T09:30:17;93037.75;;;1.96;100.00
39223;BME280;24936;46.328;11.026;2024-01-07T09:32:43;93033.06;;;1.78;100.00
39223;BME280;24936;46.328;11.026;2024-01-07T09:35:09;93036.38;;;1.80;100.00
39223;BME280;24936;46.328;11.026;2024-01-07T09:37:34;93028.81;;;1.77;100.00
39223;BME280;24936;46.328;11.026;2024-01-07T09:40:01;93035.47;;;1.70;100.00
39223;BME280;24936;46.328;11.026;2024-01-07T09:42:26;93030.03;;;1.73;100.00
39223;BME280;24936;46.328;11.026;2024-01-07T09:44:52;93024.56;;;1.88;100.00
39223;BME280;24936;46.328;11.026;2024-01-07T09:47:17;93021.97;;;1.88;100.00
39223;BME280;24936;46.328;11.026;2024-01-07T09:49:43;93027.13;;;1.99;100.00
39223;BME280;24936;46.328;11.026;2024-01-07T09:52:11;93030.81;;;2.18;100.00
39223;BME280;24936;46.328;11.026;2024-01-07T09:54:37;93029.16;;;2.17;100.00
39223;BME280;24936;46.328;11.026;2024-01-07T09:57:04;93041.91;;;2.20;100.00
39223;BME280;24936;46.328;11.026;2024-01-07T09:59:34;93037.28;;;2.23;100.00
39223;BME280;24936;46.328;11.026;2024-01-07T10:02:00;93045.78;;;2.25;100.00
39223;BME280;24936;46.328;11.026;2024-01-07T10:04:26;93046.03;;;2.22;100.00
39223;BME280;24936;46.328;11.026;2024-01-07T10:06:53;93049.00;;;2.18;100.00
39223;BME280;24936;46.328;11.026;2024-01-07T10:09:22;93036.00;;;2.18;100.00
39223;BME280;24936;46.328;11.026;2024-01-07T10:11:51;93040.97;;;2.21;100.00
39223;BME280;24936;46.328;11.026;2024-01-07T10:14:17;93044.97;;;2.25;100.00
39223;BME280;24936;46.328;11.026;2024-01-07T10:16:42;93043.47;;;2.43;100.00
39223;BME280;24936;46.328;11.026;2024-01-07T10:19:08;93047.03;;;2.42;100.00
39223;BME280;24936;46.328;11.026;2024-01-07T10:21:34;93043.34;;;2.12;100.00
39223;BME280;24936;46.328;11.026;2024-01-07T10:24:12;93039.81;;;2.13;100.00
39223;BME280;24936;46.328;11.026;2024-01-07T10:26:39;93032.50;;;2.07;100.00
39223;BME280;24936;46.328;11.026;2024-01-07T10:29:06;93037.94;;;2.04;100.00
39223;BME280;24936;46.328;11.026;2024-01-07T10:31:33;93038.13;;;1.91;100.00
39223;BME280;24936;46.328;11.026;2024-01-07T10:33:59;93036.13;;;1.83;100.00
39223;BME280;24936;46.328;11.026;2024-01-07T10:36:25;93031.88;;;1.82;100.00
39223;BME280;24936;46.328;11.026;2024-01-07T10:38:51;93035.78;;;1.77;100.00
39223;BME280;24936;46.328;11.026;2024-01-07T10:41:20;93022.44;;;1.81;100.00
39223;BME280;24936;46.328;11.026;2024-01-07T10:43:49;93022.44;;;1.81;100.00
39223;BME280;24936;46.328;11.026;2024-01-07T10:46:15;93020.22;;;1.77;100.00
39223;BME280;24936;46.328;11.026;2024-01-07T10:48:55;93019.25;;;1.89;100.00
39223;BME280;24936;46.328;11.026;2024-01-07T10:51:24;93025.25;;;1.90;100.00
39223;BME280;24936;46.328;11.026;2024-01-07T10:53:52;93022.78;;;1.88;100.00
39223;BME280;24936;46.328;11.026;2024-01-07T10:56:22;93021.59;;;1.92;100.00
39223;BME280;24936;46.328;11.026;2024-01-07T10:58:50;93024.97;;;2.04;100.00
39223;BME280;24936;46.328;11.026;2024-01-07T11:01:17;93026.41;;;1.97;100.00
39223;BME280;24936;46.328;11.026;2024-01-07T11:09:43;93021.03;;;2.10;100.00
39223;BME280;24936;46.328;11.026;2024-01-07T11:12:14;93021.66;;;2.13;100.00
39223;BME280;24936;46.328;11.026;2024-01-07T11:14:41;93025.31;;;2.32;100.00
39223;BME280;24936;46.328;11.026;2024-01-07T11:17:10;93023.25;;;2.26;100.00
39223;BME280;24936;46.328;11.026;2024-01-07T11:19:37;93024.97;;;2.37;100.00
39223;BME280;24936;46.328;11.026;2024-01-07T11:22:22;93013.69;;;2.48;100.00
39223;BME280;24936;46.328;11.026;2024-01-07T11:24:53;93015.56;;;2.24;100.00
39223;BME280;24936;46.328;11.026;2024-01-07T11:27:21;93016.31;;;2.15;100.00
39223;BME280;24936;46.328;11.026;2024-01-07T11:29:56;93002.84;;;2.21;100.00
39223;BME280;24936;46.328;11.026;2024-01-07T11:32:29;92996.56;;;2.24;100.00
39223;BME280;24936;46.328;11.026;2024-01-07T11:34:54;93002.47;;;2.26;100.00
39223;BME280;24936;46.328;11.026;2024-01-07T11:37:24;92996.44;;;2.25;100.00
39223;BME280;24936;46.328;11.026;2024-01-07T11:39:55;92994.44;;;2.29;100.00
39223;BME280;24936;46.328;11.026;2024-01-07T11:42:20;92993.34;;;2.32;100.00
39223;BME280;24936;46.328;11.026;2024-01-07T11:44:52;92998.34;;;2.44;100.00
39223;BME280;24936;46.328;11.026;2024-01-07T11:47:19;92990.06;;;2.51;100.00
39223;BME280;24936;46.328;11.026;2024-01-07T11:49:45;92988.16;;;2.53;100.00
39223;BME280;24936;46.328;11.026;2024-01-07T11:52:12;92995.25;;;2.72;100.00
39223;BME280;24936;46.328;11.026;2024-01-07T11:54:38;92990.72;;;2.95;100.00
39223;BME280;24936;46.328;11.026;2024-01-07T11:57:07;92989.28;;;3.12;100.00
39223;BME280;24936;46.328;11.026;2024-01-07T11:59:36;92990.41;;;3.19;100.00
39223;BME280;24936;46.328;11.026;2024-01-07T12:02:04;92990.56;;;2.97;100.00
39223;BME280;24936;46.328;11.026;2024-01-07T12:04:31;92996.59;;;2.66;100.00
39223;BME280;24936;46.328;11.026;2024-01-07T12:06:57;92996.38;;;2.58;100.00
39223;BME280;24936;46.328;11.026;2024-01-07T12:09:23;92994.78;;;2.67;100.00
39223;BME280;24936;46.328;11.026;2024-01-07T12:11:48;92985.16;;;2.79;100.00
39223;BME280;24936;46.328;11.026;2024-01-07T12:14:14;92987.84;;;2.67;100.00
39223;BME280;24936;46.328;11.026;2024-01-07T12:16:40;92980.03;;;2.67;100.00
39223;BME280;24936;46.328;11.026;2024-01-07T12:19:07;92982.16;;;2.83;100.00
39223;BME280;24936;46.328;11.026;2024-01-07T12:21:33;92975.47;;;2.81;100.00
39223;BME280;24936;46.328;11.026;2024-01-07T12:23:59;92980.31;;;2.95;100.00
39223;BME280;24936;46.328;11.026;2024-01-07T12:26:27;92982.66;;;2.98;100.00
39223;BME280;24936;46.328;11.026;2024-01-07T12:28:54;92976.44;;;3.20;100.00
39223;BME280;24936;46.328;11.026;2024-01-07T12:31:20;92978.91;;;3.22;100.00
39223;BME280;24936;46.328;11.026;2024-01-07T12:33:47;92977.16;;;3.32;100.00
39223;BME280;24936;46.328;11.026;2024-01-07T12:36:12;92973.88;;;3.30;100.00
39223;BME280;24936;46.328;11.026;2024-01-07T12:38:38;92982.63;;;3.29;100.00
39223;BME280;24936;46.328;11.026;2024-01-07T12:41:04;92978.03;;;3.02;100.00
39223;BME280;24936;46.328;11.026;2024-01-07T12:43:29;92980.56;;;2.92;100.00
39223;BME280;24936;46.328;11.026;2024-01-07T12:45:55;92978.41;;;2.97;100.00
39223;BME280;24936;46.328;11.026;2024-01-07T12:48:22;92981.91;;;2.86;100.00
39223;BME280;24936;46.328;11.026;2024-01-07T12:50:48;92974.94;;;2.56;100.00